createdAt,value
2022-10-23T00:00:14.976Z,2.63
2022-10-23T00:02:41.893Z,2.33
2022-10-23T00:05:09.038Z,2.65
2022-10-23T00:07:35.555Z,2.72
2022-10-23T00:10:02.173Z,3.30
2022-10-23T00:12:28.857Z,2.78
2022-10-23T00:14:55.418Z,2.70
2022-10-23T00:17:22.127Z,2.85
2022-10-23T00:19:49.165Z,2.90
2022-10-23T00:22:15.788Z,2.65
2022-10-23T00:24:42.439Z,2.90
2022-10-23T00:27:09.132Z,3.28
2022-10-23T00:29:35.638Z,3.15
2022-10-23T00:32:02.337Z,3.10
2022-10-23T00:34:28.897Z,3.40
2022-10-23T00:36:56.246Z,3.40
2022-10-23T00:39:22.789Z,3.40
2022-10-23T00:41:49.306Z,3.83
2022-10-23T00:44:18.932Z,3.83
2022-10-23T00:46:46.209Z,3.35
2022-10-23T00:49:13.438Z,3.35
2022-10-23T00:51:45.920Z,3.13
2022-10-23T00:54:29.445Z,3.60
2022-10-23T00:57:01.433Z,3.97
2022-10-23T00:59:28.566Z,3.17
2022-10-23T01:01:55.336Z,3.05
2022-10-23T01:04:22.958Z,3.75
2022-10-23T01:07:04.707Z,3.22
2022-10-23T01:09:38.105Z,2.90
2022-10-23T01:12:13.743Z,3.40
2022-10-23T01:14:54.753Z,3.83
2022-10-23T01:17:24.730Z,4.57
2022-10-23T01:20:16.309Z,4.68
2022-10-23T01:22:45.906Z,4.20
2022-10-23T01:25:40.556Z,4.80
2022-10-23T01:28:10.893Z,4.32
2022-10-23T01:33:18.346Z,3.80
2022-10-23T01:35:52.006Z,3.47
2022-10-23T01:38:27.548Z,2.97
2022-10-23T01:41:04.389Z,3.00
2022-10-23T01:43:45.344Z,3.30
2022-10-23T01:46:14.925Z,3.00
2022-10-23T01:48:43.548Z,3.15
2022-10-23T01:51:11.818Z,3.08
2022-10-23T01:53:41.301Z,2.97
2022-10-23T01:56:12.471Z,2.80
2022-10-23T01:58:40.148Z,3.40
2022-10-23T02:01:07.767Z,3.50
2022-10-23T02:03:47.208Z,3.17
2022-10-23T02:06:14.034Z,4.07
2022-10-23T02:08:40.518Z,4.05
2022-10-23T02:11:14.041Z,4.00
2022-10-23T02:13:50.680Z,3.17
2022-10-23T02:16:28.053Z,3.42
2022-10-23T02:19:15.867Z,3.00
2022-10-23T02:21:52.521Z,3.20
2022-10-23T02:24:26.123Z,3.80
2022-10-23T02:26:56.774Z,3.30
2022-10-23T02:29:28.240Z,2.83
2022-10-23T02:31:57.933Z,2.85
2022-10-23T02:34:25.300Z,2.97
2022-10-23T02:36:52.611Z,2.80
2022-10-23T02:39:22.937Z,3.40
2022-10-23T02:42:10.739Z,2.78
2022-10-23T02:44:58.958Z,3.40
2022-10-23T02:47:46.618Z,3.25
2022-10-23T02:50:42.692Z,2.67
2022-10-23T02:53:29.293Z,2.42
2022-10-23T02:56:10.099Z,2.65
2022-10-23T02:58:36.650Z,3.15
2022-10-23T03:01:06.531Z,2.60
2022-10-23T03:03:36.584Z,2.50
2022-10-23T03:06:05.059Z,2.70
2022-10-23T03:08:41.989Z,2.60
2022-10-23T03:11:08.561Z,2.85
2022-10-23T03:13:35.138Z,3.00
2022-10-23T03:16:02.565Z,2.80
2022-10-23T03:18:30.116Z,2.47
2022-10-23T03:20:59.000Z,2.42
2022-10-23T03:23:25.736Z,2.35
2022-10-23T03:25:53.554Z,2.33
2022-10-23T03:28:35.542Z,3.00
2022-10-23T03:31:02.973Z,2.90
2022-10-23T03:33:30.721Z,3.30
2022-10-23T03:36:05.875Z,2.97
2022-10-23T03:38:32.911Z,2.65
2022-10-23T03:40:59.490Z,2.83
2022-10-23T03:43:28.077Z,2.67
2022-10-23T03:45:56.614Z,2.42
2022-10-23T03:48:26.042Z,2.30
2022-10-23T03:50:59.874Z,2.65
2022-10-23T03:53:26.470Z,2.60
2022-10-23T03:55:53.043Z,2.65
2022-10-23T03:58:19.589Z,2.55
2022-10-23T04:00:46.100Z,2.35
2022-10-23T04:03:12.604Z,2.25
2022-10-23T04:05:41.172Z,2.50
2022-10-23T04:08:08.903Z,2.40
2022-10-23T04:10:35.735Z,2.38
2022-10-23T04:13:02.364Z,2.08
2022-10-23T04:15:32.632Z,2.67
2022-10-23T04:18:01.162Z,2.35
2022-10-23T04:20:27.834Z,2.83
2022-10-23T04:22:54.313Z,2.20
2022-10-23T04:25:20.903Z,2.47
2022-10-23T04:27:48.445Z,2.45
2022-10-23T04:30:15.061Z,2.08
2022-10-23T04:32:41.809Z,2.50
2022-10-23T04:35:08.751Z,2.67
2022-10-23T04:37:35.430Z,3.00
2022-10-23T04:40:01.977Z,2.80
2022-10-23T04:42:28.571Z,2.88
2022-10-23T04:44:57.149Z,2.80
2022-10-23T04:47:24.984Z,3.40
2022-10-23T04:49:57.323Z,2.67
2022-10-23T04:52:42.777Z,2.90
2022-10-23T04:55:28.601Z,2.65
2022-10-23T04:58:13.396Z,3.10
2022-10-23T05:00:41.149Z,3.17
2022-10-23T05:03:08.814Z,2.60
2022-10-23T05:05:39.719Z,2.88
2022-10-23T05:08:22.726Z,5.18
2022-10-23T05:11:17.238Z,3.17
2022-10-23T05:13:47.233Z,2.75
2022-10-23T05:16:39.902Z,2.70
2022-10-23T05:19:07.845Z,2.67
2022-10-23T05:24:05.361Z,2.65
2022-10-23T05:26:32.114Z,2.72
2022-10-23T05:29:04.011Z,2.33
2022-10-23T05:31:30.813Z,2.20
2022-10-23T05:34:08.709Z,2.20
2022-10-23T05:36:41.347Z,2.05
2022-10-23T05:39:08.073Z,1.90
2022-10-23T05:41:35.367Z,1.58
2022-10-23T05:44:02.318Z,1.73
2022-10-23T05:46:52.118Z,1.90
2022-10-23T05:49:38.525Z,2.35
2022-10-23T05:52:25.730Z,2.15
2022-10-23T05:55:11.039Z,1.52
2022-10-23T05:57:56.070Z,2.13
2022-10-23T06:00:40.583Z,1.80
2022-10-23T06:03:27.171Z,1.90
2022-10-23T06:05:53.966Z,1.95
2022-10-23T06:08:31.792Z,2.10
2022-10-23T06:10:58.591Z,2.03
2022-10-23T06:13:25.162Z,2.13
2022-10-23T06:15:51.648Z,2.20
2022-10-23T06:18:20.531Z,1.60
2022-10-23T06:21:00.423Z,2.00
2022-10-23T06:23:27.544Z,1.63
2022-10-23T06:26:18.271Z,2.13
2022-10-23T06:29:07.746Z,2.30
2022-10-23T06:31:34.737Z,1.70
2022-10-23T06:34:02.516Z,1.80
2022-10-23T06:36:31.253Z,2.25
2022-10-23T06:39:05.962Z,1.67
2022-10-23T06:42:08.006Z,1.90
2022-10-23T06:44:53.068Z,1.90
2022-10-23T06:47:43.068Z,2.13
2022-10-23T06:50:31.119Z,1.83
2022-10-23T06:52:59.718Z,1.95
2022-10-23T06:55:26.541Z,1.75
2022-10-23T06:57:53.644Z,2.05
2022-10-23T07:00:21.493Z,1.83
2022-10-23T07:02:52.622Z,2.45
2022-10-23T07:05:19.880Z,1.98
2022-10-23T07:07:46.558Z,1.70
2022-10-23T07:10:18.580Z,1.70
2022-10-23T07:12:50.664Z,2.00
2022-10-23T07:15:29.938Z,2.08
2022-10-23T07:17:57.692Z,2.70
2022-10-23T07:20:26.389Z,1.73
2022-10-23T07:22:54.777Z,1.63
2022-10-23T07:25:30.399Z,1.70
2022-10-23T07:27:59.836Z,2.33
2022-10-23T07:30:29.993Z,1.77
2022-10-23T07:33:13.645Z,1.58
2022-10-23T07:35:52.891Z,1.90
2022-10-23T07:38:25.181Z,1.35
2022-10-23T07:40:54.118Z,2.60
2022-10-23T07:43:23.118Z,1.52
2022-10-23T07:45:55.827Z,1.60
2022-10-23T07:48:36.056Z,1.55
2022-10-23T07:51:08.421Z,2.13
2022-10-23T07:53:40.220Z,1.70
2022-10-23T07:56:31.640Z,1.63
2022-10-23T07:59:29.376Z,2.20
2022-10-23T08:02:06.453Z,2.25
2022-10-23T08:04:43.839Z,2.03
2022-10-23T08:07:21.496Z,1.90
2022-10-23T08:09:50.709Z,1.63
2022-10-23T08:12:24.874Z,1.88
2022-10-23T08:14:51.430Z,1.50
2022-10-23T08:17:18.183Z,1.63
2022-10-23T08:20:01.461Z,1.70
2022-10-23T08:22:43.918Z,1.40
2022-10-23T08:25:24.716Z,1.50
2022-10-23T08:27:54.701Z,1.65
2022-10-23T08:30:21.577Z,1.15
2022-10-23T08:32:51.830Z,1.35
2022-10-23T08:35:18.594Z,1.55
2022-10-23T08:37:45.638Z,1.40
2022-10-23T08:40:22.957Z,1.50
2022-10-23T08:43:16.436Z,1.70
2022-10-23T08:46:04.133Z,1.50
2022-10-23T08:49:00.433Z,1.33
2022-10-23T08:51:47.834Z,1.30
2022-10-23T08:54:17.055Z,2.53
2022-10-23T08:56:51.401Z,1.45
2022-10-23T08:59:26.223Z,1.42
2022-10-23T09:02:01.393Z,1.40
2022-10-23T09:04:28.610Z,1.30
2022-10-23T09:07:16.607Z,1.55
2022-10-23T09:09:52.334Z,1.58
2022-10-23T09:12:22.719Z,1.25
2022-10-23T09:17:33.251Z,1.10
2022-10-23T09:20:18.439Z,1.00
2022-10-23T09:22:46.120Z,1.00
2022-10-23T09:27:56.090Z,1.00
2022-10-23T09:32:54.744Z,0.90
2022-10-23T09:35:27.143Z,0.90
2022-10-23T09:37:54.973Z,0.88
2022-10-23T09:43:17.826Z,0.98
2022-10-23T09:45:44.746Z,0.70
2022-10-23T09:48:18.141Z,0.90
2022-10-23T09:50:52.700Z,1.30
2022-10-23T09:53:40.438Z,1.00
2022-10-23T09:56:24.809Z,1.60
2022-10-23T09:58:57.891Z,1.00
2022-10-23T10:01:33.363Z,0.65
2022-10-23T10:04:39.877Z,0.85
2022-10-23T10:07:18.806Z,0.90
2022-10-23T10:09:45.806Z,1.67
2022-10-23T10:12:24.109Z,0.80
2022-10-23T10:15:01.772Z,0.98
2022-10-23T10:18:03.209Z,0.80
2022-10-23T10:20:58.705Z,0.85
2022-10-23T10:23:43.028Z,0.73
2022-10-23T10:26:38.020Z,1.08
2022-10-23T10:29:30.884Z,1.15
2022-10-23T10:32:18.051Z,1.00
2022-10-23T10:34:53.257Z,1.08
2022-10-23T10:38:10.478Z,1.00
2022-10-23T10:40:44.521Z,1.08
2022-10-23T10:43:36.865Z,0.80
2022-10-23T10:46:41.845Z,1.00
2022-10-23T10:49:31.466Z,0.88
2022-10-23T10:52:30.484Z,1.00
2022-10-23T10:55:17.999Z,0.88
2022-10-23T10:58:08.677Z,0.80
2022-10-23T11:00:35.519Z,1.10
2022-10-23T11:03:29.532Z,0.95
2022-10-23T11:05:57.614Z,0.77
2022-10-23T11:08:44.609Z,0.75
2022-10-23T11:11:34.074Z,1.00
2022-10-23T11:14:00.814Z,0.75
2022-10-23T11:16:33.915Z,0.82
2022-10-23T11:19:03.421Z,0.80
2022-10-23T11:21:54.928Z,1.08
2022-10-23T11:24:27.572Z,0.90
2022-10-23T11:27:19.789Z,1.02
2022-10-23T11:30:12.103Z,0.82
2022-10-23T11:32:45.036Z,1.00
2022-10-23T11:35:23.899Z,1.00
2022-10-23T11:38:05.596Z,0.73
2022-10-23T11:40:32.840Z,0.90
2022-10-23T11:42:59.521Z,1.20
2022-10-23T11:45:39.989Z,0.85
2022-10-23T11:48:21.587Z,0.80
2022-10-23T11:50:49.785Z,1.00
2022-10-23T11:53:31.497Z,1.00
2022-10-23T11:56:00.591Z,1.23
2022-10-23T11:58:47.254Z,0.82
2022-10-23T12:01:28.812Z,0.80
2022-10-23T12:04:13.823Z,0.88
2022-10-23T12:06:47.722Z,0.90
2022-10-23T12:09:46.441Z,1.10
2022-10-23T12:12:27.681Z,0.90
2022-10-23T12:14:54.786Z,1.10
2022-10-23T12:17:24.434Z,1.15
2022-10-23T12:19:55.238Z,1.27
2022-10-23T12:22:24.675Z,1.00
2022-10-23T12:25:13.055Z,1.20
2022-10-23T12:27:57.130Z,1.10
2022-10-23T12:30:34.635Z,1.05
2022-10-23T12:33:24.758Z,1.23
2022-10-23T12:36:25.877Z,0.93
2022-10-23T12:38:54.638Z,1.00
2022-10-23T12:41:26.766Z,1.20
2022-10-23T12:43:56.227Z,0.90
2022-10-23T12:46:41.327Z,1.15
2022-10-23T12:49:19.056Z,0.90
2022-10-23T12:51:46.501Z,0.88
2022-10-23T12:54:20.466Z,0.88
2022-10-23T12:59:17.057Z,1.10
2022-10-23T13:01:44.760Z,0.93
2022-10-23T13:04:31.399Z,1.00
2022-10-23T13:07:00.039Z,1.05
2022-10-23T13:09:33.073Z,1.20
2022-10-23T13:12:20.774Z,1.20
2022-10-23T13:15:08.926Z,1.00
2022-10-23T13:17:43.323Z,1.30
2022-10-23T13:20:10.320Z,1.13
2022-10-23T13:22:36.981Z,0.98
2022-10-23T13:25:20.566Z,1.00
2022-10-23T13:27:47.293Z,0.90
2022-10-23T13:30:31.716Z,1.27
2022-10-23T13:32:58.310Z,0.93
2022-10-23T13:35:25.732Z,1.10
2022-10-23T13:37:53.722Z,1.10
2022-10-23T13:40:27.043Z,0.90
2022-10-23T13:42:55.148Z,1.20
2022-10-23T13:45:24.940Z,1.10
2022-10-23T13:47:51.865Z,1.00
2022-10-23T13:50:19.090Z,1.08
2022-10-23T13:52:45.784Z,1.08
2022-10-23T13:55:25.066Z,1.00
2022-10-23T13:57:52.578Z,1.00
2022-10-23T14:00:19.399Z,1.13
2022-10-23T14:02:47.009Z,1.10
2022-10-23T14:07:40.263Z,1.00
2022-10-23T14:10:07.435Z,1.00
2022-10-23T14:12:44.525Z,1.10
2022-10-23T14:15:11.858Z,1.00
2022-10-23T14:17:38.500Z,1.08
2022-10-23T14:20:06.419Z,1.02
2022-10-23T14:22:33.239Z,1.00
2022-10-23T14:24:59.761Z,1.50
2022-10-23T14:27:26.716Z,1.38
2022-10-23T14:29:53.263Z,1.10
2022-10-23T14:32:19.771Z,1.10
2022-10-23T14:34:50.440Z,1.20
2022-10-23T14:37:18.069Z,1.15
2022-10-23T14:42:17.389Z,1.30
2022-10-23T14:44:44.674Z,1.33
2022-10-23T14:47:11.871Z,1.23
2022-10-23T14:49:40.086Z,1.13
2022-10-23T14:52:07.914Z,1.20
2022-10-23T14:54:36.203Z,1.00
2022-10-23T14:57:03.276Z,1.30
2022-10-23T14:59:30.001Z,1.30
2022-10-23T15:01:56.600Z,1.17
2022-10-23T15:04:23.256Z,1.13
2022-10-23T15:06:49.986Z,1.55
2022-10-23T15:09:18.192Z,1.20
2022-10-23T15:11:44.806Z,1.20
2022-10-23T15:14:11.508Z,1.38
2022-10-23T15:16:41.449Z,1.60
2022-10-23T15:19:17.057Z,1.90
2022-10-23T15:21:49.282Z,1.80
2022-10-23T15:24:17.464Z,1.83
2022-10-23T15:26:44.658Z,2.13
2022-10-23T15:29:12.008Z,1.60
2022-10-23T15:31:38.528Z,1.80
2022-10-23T15:34:05.838Z,1.90
2022-10-23T15:36:32.656Z,1.65
2022-10-23T15:38:59.275Z,2.00
2022-10-23T15:41:31.195Z,2.25
2022-10-23T15:44:01.927Z,2.50
2022-10-23T15:46:28.921Z,3.20
2022-10-23T15:48:55.580Z,2.70
2022-10-23T15:51:22.142Z,2.72
2022-10-23T15:53:49.018Z,2.78
2022-10-23T15:56:15.646Z,2.08
2022-10-23T15:58:42.252Z,2.08
2022-10-23T16:01:08.974Z,2.10
2022-10-23T16:03:37.093Z,2.10
2022-10-23T16:06:16.231Z,2.13
2022-10-23T16:08:46.243Z,2.10
2022-10-23T16:11:21.817Z,1.73
2022-10-23T16:13:49.454Z,2.00
2022-10-23T16:16:16.488Z,1.80
2022-10-23T16:18:44.575Z,2.33
2022-10-23T16:21:26.414Z,1.98
2022-10-23T16:23:56.944Z,1.88
2022-10-23T16:26:23.772Z,2.10
2022-10-23T16:29:00.224Z,2.63
2022-10-23T16:31:27.849Z,1.80
2022-10-23T16:33:54.707Z,1.70
2022-10-23T16:36:21.515Z,1.60
2022-10-23T16:39:14.931Z,1.60
2022-10-23T16:41:59.935Z,1.90
2022-10-23T16:44:36.350Z,1.75
2022-10-23T16:47:05.900Z,2.10
2022-10-23T16:49:32.490Z,1.70
2022-10-23T16:51:59.095Z,2.05
2022-10-23T16:54:25.738Z,1.95
2022-10-23T16:56:52.286Z,2.22
2022-10-23T16:59:19.150Z,1.90
2022-10-23T17:01:45.839Z,1.75
2022-10-23T17:04:12.429Z,1.60
2022-10-23T17:06:38.941Z,1.63
2022-10-23T17:09:06.076Z,2.00
2022-10-23T17:11:35.248Z,1.98
2022-10-23T17:14:13.910Z,1.55
2022-10-23T17:16:44.410Z,1.52
2022-10-23T17:19:20.829Z,2.42
2022-10-23T17:21:54.531Z,2.22
2022-10-23T17:24:21.471Z,1.65
2022-10-23T17:26:48.499Z,1.83
2022-10-23T17:29:15.145Z,1.83
2022-10-23T17:31:47.413Z,2.35
2022-10-23T17:34:19.374Z,1.65
2022-10-23T17:36:49.296Z,1.48
2022-10-23T17:39:18.902Z,1.90
2022-10-23T17:41:45.734Z,1.45
2022-10-23T17:44:12.420Z,1.90
2022-10-23T17:46:39.279Z,1.55
2022-10-23T17:49:06.122Z,1.70
2022-10-23T17:51:34.151Z,1.90
2022-10-23T17:54:02.857Z,1.73
2022-10-23T17:56:31.068Z,1.45
2022-10-23T17:59:04.598Z,1.50
2022-10-23T18:01:31.649Z,2.22
2022-10-23T18:04:01.942Z,2.15
2022-10-23T18:06:34.560Z,1.90
2022-10-23T18:09:02.331Z,1.92
2022-10-23T18:11:34.376Z,1.88
2022-10-23T18:14:01.376Z,2.15
2022-10-23T18:16:28.526Z,2.35
2022-10-23T18:18:55.941Z,2.10
2022-10-23T18:21:24.147Z,1.60
2022-10-23T18:23:51.552Z,2.05
2022-10-23T18:26:24.653Z,2.10
2022-10-23T18:28:53.575Z,1.90
2022-10-23T18:31:20.714Z,1.98
2022-10-23T18:33:47.740Z,2.13
2022-10-23T18:36:23.950Z,2.05
2022-10-23T18:38:51.674Z,1.90
2022-10-23T18:41:19.604Z,2.17
2022-10-23T18:43:46.209Z,3.20
2022-10-23T18:46:13.535Z,2.17
2022-10-23T18:48:40.906Z,1.98
2022-10-23T18:51:15.913Z,2.33
2022-10-23T18:53:46.654Z,2.10
2022-10-23T18:56:14.987Z,2.00
2022-10-23T18:58:42.418Z,2.03
2022-10-23T19:01:09.178Z,1.98
2022-10-23T19:03:35.824Z,2.03
2022-10-23T19:06:02.418Z,2.05
2022-10-23T19:08:29.165Z,2.05
2022-10-23T19:10:57.469Z,2.30
2022-10-23T19:13:24.000Z,2.10
2022-10-23T19:15:50.497Z,2.30
2022-10-23T19:18:17.081Z,1.98
2022-10-23T19:20:44.086Z,2.17
2022-10-23T19:23:12.804Z,2.22
2022-10-23T19:25:45.264Z,2.05
2022-10-23T19:28:11.833Z,2.50
2022-10-23T19:30:39.233Z,2.08
2022-10-23T19:33:05.865Z,2.30
2022-10-23T19:35:32.487Z,2.70
2022-10-23T19:37:59.630Z,2.40
2022-10-23T19:40:26.194Z,2.20
2022-10-23T19:42:54.179Z,2.35
2022-10-23T19:45:20.890Z,2.10
2022-10-23T19:47:47.876Z,2.20
2022-10-23T19:50:14.538Z,2.58
2022-10-23T19:52:41.119Z,3.30
2022-10-23T19:55:08.867Z,3.33
2022-10-23T19:57:36.954Z,2.25
2022-10-23T20:00:06.042Z,2.83
2022-10-23T20:02:36.920Z,2.50
2022-10-23T20:05:07.367Z,2.10
2022-10-23T20:07:34.548Z,2.30
2022-10-23T20:10:01.374Z,2.90
2022-10-23T20:12:28.014Z,2.33
2022-10-23T20:14:55.442Z,2.30
2022-10-23T20:17:22.204Z,2.38
2022-10-23T20:19:49.345Z,2.78
2022-10-23T20:22:16.754Z,2.70
2022-10-23T20:24:43.456Z,2.92
2022-10-23T20:27:10.932Z,2.38
2022-10-23T20:29:37.795Z,2.30
2022-10-23T20:32:04.515Z,2.50
2022-10-23T20:34:31.276Z,2.10
2022-10-23T20:36:59.767Z,2.38
2022-10-23T20:39:29.560Z,2.00
2022-10-23T20:41:56.750Z,1.67
2022-10-23T20:44:24.128Z,2.10
2022-10-23T20:46:51.753Z,1.60
2022-10-23T20:49:19.014Z,1.90
2022-10-23T20:51:54.805Z,1.80
2022-10-23T20:54:26.038Z,1.58
2022-10-23T20:56:55.205Z,2.13
2022-10-23T20:59:22.437Z,1.83
2022-10-23T21:01:51.260Z,1.38
2022-10-23T21:04:21.533Z,1.58
2022-10-23T21:07:10.784Z,1.85
2022-10-23T21:09:38.994Z,1.50
2022-10-23T21:12:06.627Z,1.65
2022-10-23T21:14:34.262Z,2.37
2022-10-23T21:19:27.581Z,1.60
2022-10-23T21:21:54.490Z,1.60
2022-10-23T21:24:21.358Z,1.52
2022-10-23T21:26:48.084Z,1.70
2022-10-23T21:29:19.475Z,1.63
2022-10-23T21:31:58.607Z,1.50
2022-10-23T21:34:26.282Z,1.30
2022-10-23T21:39:40.863Z,1.40
2022-10-23T21:42:07.561Z,1.15
2022-10-23T21:44:34.136Z,1.38
2022-10-23T21:47:00.698Z,1.25
2022-10-23T21:49:27.385Z,1.33
2022-10-23T21:51:55.084Z,1.83
2022-10-23T21:54:22.120Z,1.00
2022-10-23T21:56:50.968Z,2.15
2022-10-23T21:59:20.436Z,1.05
2022-10-23T22:01:48.126Z,0.90
2022-10-23T22:04:18.262Z,1.30
2022-10-23T22:06:45.857Z,1.10
2022-10-23T22:09:14.215Z,1.10
2022-10-23T22:11:41.210Z,1.48
2022-10-23T22:14:07.999Z,1.10
2022-10-23T22:16:34.621Z,1.00
2022-10-23T22:19:01.683Z,1.23
2022-10-23T22:21:29.776Z,1.00
2022-10-23T22:23:58.653Z,0.90
2022-10-23T22:26:47.238Z,1.20
2022-10-23T22:29:15.996Z,0.85
2022-10-23T22:31:45.685Z,0.57
2022-10-23T22:34:26.735Z,1.00
2022-10-23T22:37:00.703Z,1.25
2022-10-23T22:39:27.325Z,1.05
2022-10-23T22:41:54.037Z,1.38
2022-10-23T22:44:20.653Z,0.77
2022-10-23T22:46:47.226Z,1.08
2022-10-23T22:49:13.840Z,1.38
2022-10-23T22:51:40.538Z,1.23
2022-10-23T22:54:07.313Z,1.58
2022-10-23T22:56:34.584Z,0.77
2022-10-23T22:59:01.366Z,0.60
2022-10-23T23:01:37.412Z,1.10
2022-10-23T23:04:13.976Z,1.00
2022-10-23T23:06:50.626Z,0.93
2022-10-23T23:09:18.616Z,1.40
2022-10-23T23:11:51.755Z,1.20
2022-10-23T23:14:24.100Z,1.10
2022-10-23T23:16:52.612Z,1.35
2022-10-23T23:19:19.809Z,1.27
2022-10-23T23:21:46.367Z,1.30
2022-10-23T23:24:13.026Z,1.23
2022-10-23T23:26:39.726Z,0.90
2022-10-23T23:29:06.419Z,0.90
2022-10-23T23:31:33.364Z,1.05
2022-10-23T23:33:59.980Z,1.67
2022-10-23T23:36:27.516Z,1.13
2022-10-23T23:38:55.534Z,0.93
2022-10-23T23:41:22.936Z,0.90
2022-10-23T23:43:49.762Z,1.17
2022-10-23T23:46:17.729Z,0.80
2022-10-23T23:48:47.885Z,1.33
2022-10-23T23:51:20.349Z,1.27
2022-10-23T23:53:47.660Z,1.30
2022-10-23T23:56:14.174Z,1.10
2022-10-23T23:58:41.260Z,1.27
